Time;durP1;ratioP1;P1;durP2;ratioP2;P2;SDS_P1;SDS_P2;PMS_P1;PMS_P2;Temp;Humidity;BMP_temperature;BMP_pressure;BME280_temperature;BME280_humidity;BME280_pressure;Samples;Min_cycle;Max_cycle;Signal;HPM_P1;HPM_P2
2023/11/20 00:01:35;;;;;;;0.30;0.30;;;;;;;10.54;100.00;99759.34;4994535;28;20267;-80
2023/11/20 00:04:02;;;;;;;0.57;0.40;;;;;;;10.56;100.00;99767.22;4993851;28;20235;-80
2023/11/20 00:06:30;;;;;;;1.13;0.40;;;;;;;10.56;100.00;99756.56;4993550;28;20322;-80
2023/11/20 00:08:58;;;;;;;1.43;0.40;;;;;;;10.57;100.00;99763.59;4994140;28;20671;-79
2023/11/20 00:11:24;;;;;;;0.97;0.30;;;;;;;10.56;100.00;99753.91;4993821;28;20214;-80
2023/11/20 00:13:52;;;;;;;0.30;0.30;;;;;;;10.58;100.00;99766.09;4994067;28;20265;-78
2023/11/20 00:16:19;;;;;;;1.37;0.40;;;;;;;10.60;100.00;99763.31;4993810;28;20238;-79
2023/11/20 00:18:45;;;;;;;0.30;0.30;;;;;;;10.59;100.00;99762.47;4987334;28;20555;-79
2023/11/20 00:21:12;;;;;;;0.37;0.33;;;;;;;10.60;100.00;99763.31;4993634;28;20207;-78
2023/11/20 00:23:38;;;;;;;0.30;0.30;;;;;;;10.58;100.00;99758.09;4993496;28;20732;-79
2023/11/20 00:26:05;;;;;;;1.07;0.30;;;;;;;10.59;100.00;99765.13;4993410;28;20623;-80
2023/11/20 00:28:32;;;;;;;0.30;0.30;;;;;;;10.60;100.00;99758.00;4993561;28;20635;-79
2023/11/20 00:31:00;;;;;;;0.30;0.20;;;;;;;10.61;100.00;99747.22;4992749;28;20243;-80
2023/11/20 00:33:27;;;;;;;0.93;0.50;;;;;;;10.63;100.00;99757.75;4993160;28;20258;-80
2023/11/20 00:35:53;;;;;;;0.50;0.40;;;;;;;10.60;100.00;99764.16;4994203;28;20867;-80
2023/11/20 00:38:19;;;;;;;0.30;0.30;;;;;;;10.61;100.00;99754.38;4993794;28;20666;-80
2023/11/20 00:40:46;;;;;;;0.77;0.50;;;;;;;10.64;100.00;99757.63;4991341;28;20604;-79
2023/11/20 00:43:14;;;;;;;1.03;0.40;;;;;;;10.62;100.00;99751.59;4983215;28;20200;-79
2023/11/20 00:45:41;;;;;;;0.50;0.40;;;;;;;10.65;100.00;99747.84;4983855;28;20233;-79
2023/11/20 00:48:08;;;;;;;0.57;0.43;;;;;;;10.62;100.00;99759.56;4977421;28;20209;-80
2023/11/20 00:50:35;;;;;;;0.50;0.50;;;;;;;10.62;100.00;99748.91;4993213;28;20299;-79
2023/11/20 00:53:02;;;;;;;0.47;0.47;;;;;;;10.64;100.00;99756.78;4993019;28;20236;-79
2023/11/20 00:55:29;;;;;;;0.57;0.30;;;;;;;10.63;100.00;99755.09;4989097;28;20259;-80
2023/11/20 00:57:55;;;;;;;0.77;0.50;;;;;;;10.64;100.00;99764.78;4992985;28;20203;-79
2023/11/20 01:00:23;;;;;;;1.37;0.50;;;;;;;10.64;100.00;99762.97;4993600;28;20216;-81
2023/11/20 01:02:49;;;;;;;1.37;0.50;;;;;;;10.63;100.00;99757.75;4979701;28;20261;-82
2023/11/20 01:05:18;;;;;;;0.30;0.30;;;;;;;10.63;100.00;99761.28;4988725;28;20219;-82
2023/11/20 01:07:45;;;;;;;0.70;0.40;;;;;;;10.64;100.00;99760.31;4993797;28;20208;-82
2023/11/20 01:10:11;;;;;;;0.57;0.50;;;;;;;10.66;100.00;99762.84;4992853;28;20207;-82
2023/11/20 01:12:38;;;;;;;0.83;0.50;;;;;;;10.68;100.00;99766.25;4992124;28;20230;-82
2023/11/20 01:15:05;;;;;;;0.50;0.40;;;;;;;10.67;100.00;99767.22;5004244;28;20238;-82
2023/11/20 01:17:32;;;;;;;0.50;0.50;;;;;;;10.65;100.00;99761.16;5013618;28;20223;-82
2023/11/20 01:19:58;;;;;;;1.10;0.43;;;;;;;10.64;100.00;99764.78;5013005;28;20223;-82
2023/11/20 01:22:26;;;;;;;0.30;0.30;;;;;;;10.65;100.00;99762.00;5014113;28;20691;-83
2023/11/20 01:24:53;;;;;;;1.23;0.43;;;;;;;10.65;100.00;99771.81;5012894;28;20246;-83
2023/11/20 01:27:19;;;;;;;1.10;0.60;;;;;;;10.66;100.00;99765.50;5013324;28;20213;-83
2023/11/20 01:29:46;;;;;;;0.50;0.40;;;;;;;10.66;100.00;99761.03;5013429;28;20207;-83
2023/11/20 01:32:13;;;;;;;0.87;0.60;;;;;;;10.65;100.00;99762.00;5012440;28;20228;-82
2023/11/20 01:34:39;;;;;;;0.50;0.43;;;;;;;10.64;100.00;99762.13;5012824;28;20210;-83
2023/11/20 01:37:06;;;;;;;0.73;0.50;;;;;;;10.69;100.00;99763.47;5013327;28;20227;-82
2023/11/20 01:39:34;;;;;;;0.67;0.50;;;;;;;10.66;100.00;99765.50;5012877;28;20202;-83
2023/11/20 01:42:00;;;;;;;0.70;0.60;;;;;;;10.65;100.00;99762.00;5012574;28;20206;-82
2023/11/20 01:44:27;;;;;;;0.90;0.73;;;;;;;10.65;100.00;99758.50;5012314;28;20208;-82
2023/11/20 01:46:54;;;;;;;1.53;1.40;;;;;;;10.67;100.00;99769.88;5012393;28;20214;-82
2023/11/20 01:49:20;;;;;;;2.20;1.63;;;;;;;10.69;100.00;99762.63;5013016;28;20211;-82
2023/11/20 01:51:47;;;;;;;1.90;1.70;;;;;;;10.71;100.00;99764.19;5012075;28;20211;-82
2023/11/20 01:54:14;;;;;;;2.60;1.70;;;;;;;10.72;100.00;99767.72;5012035;28;20219;-81
2023/11/20 01:56:42;;;;;;;1.20;1.10;;;;;;;10.73;100.00;99761.41;5011680;28;20716;-83
2023/11/20 01:59:11;;;;;;;2.27;1.30;;;;;;;10.75;100.00;99762.13;5011976;28;20247;-83
2023/11/20 02:01:38;;;;;;;2.23;1.40;;;;;;;10.76;100.00;99753.16;5012344;28;20205;-83
2023/11/20 02:04:05;;;;;;;2.13;1.50;;;;;;;10.81;100.00;99760.81;5011605;28;20218;-83
2023/11/20 02:06:32;;;;;;;2.37;1.80;;;;;;;10.80;100.00;99757.28;5011957;28;20230;-82
2023/11/20 02:08:58;;;;;;;2.60;2.40;;;;;;;10.81;100.00;99756.31;5012463;28;20254;-82
2023/11/20 02:11:27;;;;;;;2.40;2.20;;;;;;;10.84;100.00;99745.44;5012074;28;20228;-82
2023/11/20 02:13:56;;;;;;;3.40;3.07;;;;;;;10.85;100.00;99740.97;5012074;28;20254;-82
2023/11/20 02:16:22;;;;;;;2.80;2.50;;;;;;;10.85;100.00;99748.94;5011778;28;20322;-82
2023/11/20 02:18:49;;;;;;;2.70;2.50;;;;;;;10.83;100.00;99749.06;5011491;28;20206;-82
2023/11/20 02:21:15;;;;;;;3.83;2.60;;;;;;;10.85;100.00;99741.81;5011949;28;20208;-82
2023/11/20 02:23:42;;;;;;;3.77;3.03;;;;;;;10.87;100.00;99750.53;5011649;28;20215;-82
2023/11/20 02:26:28;;;;;;;3.30;2.97;;;;;;;10.88;100.00;99757.56;5011963;28;20228;-83
2023/11/20 02:29:07;;;;;;;3.63;2.93;;;;;;;10.89;100.00;99750.41;5011373;28;20191;-82
2023/11/20 02:31:35;;;;;;;3.53;2.87;;;;;;;10.90;100.00;99749.44;5011465;28;20187;-82
2023/11/20 02:34:01;;;;;;;4.43;3.40;;;;;;;10.89;100.00;99751.25;5012180;28;20239;-82
2023/11/20 02:36:28;;;;;;;3.50;3.20;;;;;;;10.89;100.00;99750.41;5011498;28;20219;-82
2023/11/20 02:38:55;;;;;;;4.00;3.60;;;;;;;10.88;100.00;99738.06;5011684;28;20679;-82
2023/11/20 02:41:21;;;;;;;4.17;3.73;;;;;;;10.90;100.00;99738.78;5011549;28;20203;-82
2023/11/20 02:43:48;;;;;;;4.30;3.23;;;;;;;10.90;100.00;99744.13;5011107;28;20212;-82
2023/11/20 02:46:14;;;;;;;3.83;3.03;;;;;;;10.92;100.00;99737.69;5011558;28;20221;-82
2023/11/20 02:48:42;;;;;;;4.97;3.47;;;;;;;10.94;100.00;99733.06;4997231;28;20233;-81
2023/11/20 02:51:09;;;;;;;4.20;3.77;;;;;;;10.93;100.00;99743.84;4991803;28;20208;-81
2023/11/20 02:53:35;;;;;;;2.70;2.37;;;;;;;10.93;100.00;99749.16;4992788;28;20238;-81
2023/11/20 02:56:02;;;;;;;4.90;2.43;;;;;;;10.94;100.00;99750.88;4973956;28;20224;-81
2023/11/20 02:58:28;;;;;;;3.43;2.33;;;;;;;10.92;100.00;99748.34;4972574;28;20213;-82
2023/11/20 03:00:55;;;;;;;2.47;2.13;;;;;;;10.97;100.00;99758.63;4971983;28;20213;-81
2023/11/20 03:03:21;;;;;;;2.03;1.93;;;;;;;10.95;100.00;99745.41;4971692;28;20214;-82
2023/11/20 03:05:49;;;;;;;2.47;2.13;;;;;;;10.97;100.00;99751.47;4972948;28;20222;-82
2023/11/20 03:08:15;;;;;;;2.30;2.00;;;;;;;10.99;100.00;99751.34;4971879;28;20221;-81
2023/11/20 03:10:42;;;;;;;2.50;2.30;;;;;;;10.98;100.00;99747.00;4976111;28;20209;-82
2023/11/20 03:13:10;;;;;;;1.60;1.50;;;;;;;10.99;100.00;99749.53;4976096;28;20276;-82
2023/11/20 03:15:37;;;;;;;1.80;1.70;;;;;;;10.99;100.00;99746.03;4975856;28;20572;-82
2023/11/20 03:18:04;;;;;;;3.70;2.13;;;;;;;10.96;100.00;99744.47;4976241;28;20268;-82
2023/11/20 03:20:30;;;;;;;2.80;1.80;;;;;;;10.97;100.00;99751.47;4975477;28;20431;-81
2023/11/20 03:22:59;;;;;;;1.73;1.57;;;;;;;10.98;100.00;99747.84;4975394;28;20307;-82
2023/11/20 03:25:25;;;;;;;1.30;1.20;;;;;;;11.00;100.00;99755.72;4976554;28;20231;-81
2023/11/20 03:27:54;;;;;;;2.00;1.10;;;;;;;10.99;100.00;99754.88;4976034;28;20210;-82
2023/11/20 03:30:21;;;;;;;1.43;1.20;;;;;;;10.99;100.00;99743.38;4976022;28;20217;-82
2023/11/20 03:32:48;;;;;;;1.10;1.00;;;;;;;10.99;100.00;99746.03;4975511;28;20320;-82
2023/11/20 03:35:15;;;;;;;1.30;1.20;;;;;;;10.95;100.00;99753.41;4975700;28;20240;-82
2023/11/20 03:37:42;;;;;;;1.80;1.30;;;;;;;10.97;100.00;99759.47;4976297;28;20211;-83
2023/11/20 03:40:12;;;;;;;1.70;1.60;;;;;;;10.98;100.00;99761.16;4975553;28;20241;-82
2023/11/20 03:42:38;;;;;;;1.77;1.60;;;;;;;10.95;100.00;99763.22;4975572;28;20220;-82
2023/11/20 03:45:06;;;;;;;2.53;2.13;;;;;;;10.93;100.00;99763.34;4983190;28;20242;-82
2023/11/20 03:47:33;;;;;;;2.43;2.23;;;;;;;10.90;100.00;99760.94;4994364;28;20207;-82
2023/11/20 03:49:59;;;;;;;4.20;3.00;;;;;;;10.89;100.00;99764.56;4995417;28;20238;-82
2023/11/20 03:52:26;;;;;;;2.27;2.13;;;;;;;10.93;100.00;99757.16;4996427;28;20220;-82
2023/11/20 03:54:52;;;;;;;2.97;2.13;;;;;;;10.90;100.00;99755.63;4993666;28;20233;-82
2023/11/20 03:57:20;;;;;;;2.90;2.60;;;;;;;10.91;100.00;99754.66;4991327;28;20210;-82
2023/11/20 03:59:46;;;;;;;7.53;3.20;;;;;;;10.90;100.00;99758.28;4986905;28;20649;-82
2023/11/20 04:02:16;;;;;;;4.40;3.33;;;;;;;10.90;100.00;99760.09;4983341;28;20394;-82
2023/11/20 04:04:42;;;;;;;4.73;3.60;;;;;;;10.90;100.00;99760.94;4986515;28;20202;-82
2023/11/20 04:07:09;;;;;;;4.80;3.83;;;;;;;10.88;100.00;99752.22;4989701;28;20218;-82
2023/11/20 04:09:35;;;;;;;5.67;4.73;;;;;;;10.85;100.00;99756.94;4997702;28;20236;-82
2023/11/20 04:12:02;;;;;;;4.93;4.50;;;;;;;10.87;100.00;99750.53;4991471;28;20206;-82
2023/11/20 04:14:30;;;;;;;7.03;4.60;;;;;;;10.85;100.00;99748.94;4993967;28;20225;-81
2023/11/20 04:16:58;;;;;;;6.93;4.20;;;;;;;10.86;100.00;99755.97;4979442;28;20819;-82
2023/11/20 04:19:24;;;;;;;5.00;4.50;;;;;;;10.84;100.00;99750.75;4991253;28;20225;-82
2023/11/20 04:21:52;;;;;;;5.43;4.23;;;;;;;10.86;100.00;99753.31;4993309;28;20577;-81
2023/11/20 04:24:19;;;;;;;5.20;4.70;;;;;;;10.86;100.00;99754.16;4985817;28;20303;-82
2023/11/20 04:26:45;;;;;;;5.87;4.00;;;;;;;10.87;100.00;99753.19;4993344;28;20821;-82
2023/11/20 04:29:13;;;;;;;5.00;3.23;;;;;;;10.88;100.00;99762.03;4988504;28;20689;-82
2023/11/20 04:31:41;;;;;;;3.30;3.00;;;;;;;10.88;100.00;99757.56;4993279;28;20708;-82
2023/11/20 04:34:07;;;;;;;2.97;2.73;;;;;;;10.88;100.00;99757.56;4989226;28;20233;-82
2023/11/20 04:36:34;;;;;;;2.93;2.63;;;;;;;10.88;100.00;99757.56;4985271;28;20229;-82
2023/11/20 04:39:00;;;;;;;3.90;2.53;;;;;;;10.89;100.00;99753.91;4992450;28;20211;-82
2023/11/20 04:41:27;;;;;;;3.40;2.50;;;;;;;10.89;100.00;99755.72;4985875;28;20208;-81
2023/11/20 04:43:53;;;;;;;4.27;3.40;;;;;;;10.90;100.00;99747.63;4993501;28;20213;-82
2023/11/20 04:46:19;;;;;;;3.93;3.20;;;;;;;10.89;100.00;99747.75;4994120;28;20227;-82
2023/11/20 04:48:48;;;;;;;3.33;2.67;;;;;;;10.89;100.00;99763.72;4993292;28;20216;-82
2023/11/20 04:51:19;;;;;;;3.47;2.57;;;;;;;10.88;100.00;99757.56;4993380;28;20294;-82
2023/11/20 04:53:46;;;;;;;3.10;2.30;;;;;;;10.88;100.00;99752.22;4993966;28;20220;-82
2023/11/20 04:56:13;;;;;;;3.73;2.20;;;;;;;10.88;100.00;99752.22;5000199;28;20236;-82
2023/11/20 04:58:39;;;;;;;3.03;2.43;;;;;;;10.90;100.00;99760.94;4982734;28;20570;-83
2023/11/20 05:01:07;;;;;;;2.53;2.03;;;;;;;10.88;100.00;99752.22;4999249;28;20209;-82
2023/11/20 05:03:37;;;;;;;3.03;2.67;;;;;;;10.88;100.00;99756.69;4985835;28;20305;-82
2023/11/20 05:06:06;;;;;;;3.43;2.70;;;;;;;10.87;100.00;99761.19;4985928;28;20220;-82
2023/11/20 05:08:33;;;;;;;2.87;2.60;;;;;;;10.88;100.00;99757.56;4984773;28;20205;-82
2023/11/20 05:10:59;;;;;;;2.53;2.33;;;;;;;10.86;100.00;99764.81;4985537;28;20572;-83
2023/11/20 05:13:26;;;;;;;2.07;1.87;;;;;;;10.86;100.00;99759.47;5003271;28;20228;-82
2023/11/20 05:15:52;;;;;;;3.27;2.60;;;;;;;10.86;100.00;99763.97;5007044;28;20230;-82
2023/11/20 05:18:19;;;;;;;4.57;3.10;;;;;;;10.83;100.00;99765.03;4994076;28;20627;-82
2023/11/20 05:20:45;;;;;;;4.07;3.40;;;;;;;10.81;100.00;99764.31;4993303;28;20673;-82
2023/11/20 05:23:13;;;;;;;4.33;3.93;;;;;;;10.80;100.00;99762.63;4984914;28;20564;-82
2023/11/20 05:25:39;;;;;;;3.67;3.33;;;;;;;10.80;100.00;99765.28;4973976;28;20321;-82
2023/11/20 05:28:06;;;;;;;5.00;4.07;;;;;;;10.79;100.00;99772.41;4973464;28;20562;-82
2023/11/20 05:30:32;;;;;;;4.63;3.93;;;;;;;10.79;100.00;99766.25;4974050;28;20208;-82
2023/11/20 05:33:00;;;;;;;4.13;3.17;;;;;;;10.78;100.00;99767.22;4973092;28;20214;-82
2023/11/20 05:35:26;;;;;;;4.03;3.63;;;;;;;10.80;100.00;99778.59;4975649;28;20229;-82
2023/11/20 05:37:53;;;;;;;6.80;3.23;;;;;;;10.78;100.00;99759.22;4994014;28;20219;-83
2023/11/20 05:40:21;;;;;;;3.47;2.47;;;;;;;10.79;100.00;99764.44;4992750;28;20215;-82
2023/11/20 05:42:48;;;;;;;3.80;2.43;;;;;;;10.78;100.00;99775.19;4993260;28;20209;-84
2023/11/20 05:45:14;;;;;;;4.47;2.03;;;;;;;10.78;100.00;99778.72;4991410;28;20223;-85
2023/11/20 05:47:41;;;;;;;2.10;1.90;;;;;;;10.78;100.00;99770.72;4992328;28;20209;-82
2023/11/20 05:50:08;;;;;;;2.27;2.07;;;;;;;10.78;100.00;99767.22;4991871;28;20215;-83
2023/11/20 05:52:34;;;;;;;4.77;2.40;;;;;;;10.75;100.00;99778.09;4994786;28;20858;-84
2023/11/20 05:55:02;;;;;;;2.50;2.00;;;;;;;10.76;100.00;99779.78;4998251;28;20717;-84
2023/11/20 05:57:30;;;;;;;3.20;2.37;;;;;;;10.78;100.00;99788.53;4993280;28;20242;-84
2023/11/20 05:59:56;;;;;;;2.37;1.90;;;;;;;10.75;100.00;99789.59;4993042;28;20207;-83
2023/11/20 06:02:23;;;;;;;3.20;2.50;;;;;;;10.75;100.00;99794.06;4993029;28;20218;-84
2023/11/20 06:04:49;;;;;;;3.77;2.47;;;;;;;10.78;100.00;99799.16;4986371;28;20233;-83
2023/11/20 06:07:16;;;;;;;4.23;2.47;;;;;;;10.76;100.00;99793.97;4987187;28;20215;-82
2023/11/20 06:09:42;;;;;;;3.00;2.27;;;;;;;10.75;100.00;99794.94;4984942;28;20203;-84
2023/11/20 06:12:09;;;;;;;3.50;2.27;;;;;;;10.77;100.00;99794.81;4984064;28;20746;-85
2023/11/20 06:14:36;;;;;;;2.33;1.97;;;;;;;10.77;100.00;99797.47;4988298;28;20228;-85
2023/11/20 06:17:04;;;;;;;3.00;2.13;;;;;;;10.76;100.00;99799.28;4991882;28;20220;-84
2023/11/20 06:19:30;;;;;;;2.63;2.07;;;;;;;10.74;100.00;99801.25;4993142;28;20307;-84
2023/11/20 06:21:57;;;;;;;2.83;2.60;;;;;;;10.75;100.00;99810.06;4992281;28;20208;-84
2023/11/20 06:24:23;;;;;;;5.83;3.00;;;;;;;10.77;100.00;99808.13;4989077;28;20224;-84
2023/11/20 06:26:50;;;;;;;3.60;2.80;;;;;;;10.76;100.00;99812.59;4986697;28;20236;-84
2023/11/20 06:29:16;;;;;;;6.30;3.87;;;;;;;10.76;100.00;99823.25;4989898;28;20212;-84
2023/11/20 06:31:44;;;;;;;5.20;3.57;;;;;;;10.75;100.00;99816.22;4992008;28;20206;-84
2023/11/20 06:34:10;;;;;;;4.60;4.20;;;;;;;10.74;100.00;99819.91;4987574;28;20232;-83
2023/11/20 06:36:37;;;;;;;4.90;3.70;;;;;;;10.71;100.00;99819.28;4986243;28;20232;-83
2023/11/20 06:39:06;;;;;;;5.87;4.17;;;;;;;10.70;100.00;99828.22;4991818;28;20211;-83
2023/11/20 06:41:32;;;;;;;6.63;4.07;;;;;;;10.70;100.00;99831.75;4984454;28;20217;-83
2023/11/20 06:44:00;;;;;;;6.33;4.43;;;;;;;10.70;100.00;99838.88;4991158;28;20213;-83
2023/11/20 06:46:27;;;;;;;6.20;4.93;;;;;;;10.68;100.00;99832.81;4989258;28;20232;-83
2023/11/20 06:48:54;;;;;;;8.30;5.07;;;;;;;10.64;100.00;99836.69;4991441;28;20213;-82
2023/11/20 06:51:22;;;;;;;6.43;5.07;;;;;;;10.66;100.00;99840.06;4995371;28;20211;-83
2023/11/20 06:53:48;;;;;;;6.60;4.83;;;;;;;10.67;100.00;99837.28;4975519;28;20524;-83
2023/11/20 06:56:18;;;;;;;5.70;4.30;;;;;;;10.65;100.00;99841.88;4996095;28;20230;-84
2023/11/20 06:58:45;;;;;;;6.00;3.93;;;;;;;10.64;100.00;99845.50;4995415;28;20592;-83
2023/11/20 07:01:12;;;;;;;5.90;3.53;;;;;;;10.64;100.00;99839.34;4988757;28;20212;-83
2023/11/20 07:03:42;;;;;;;6.23;3.73;;;;;;;10.60;100.00;99838.72;4986595;28;20354;-83
2023/11/20 07:06:11;;;;;;;5.07;3.43;;;;;;;10.61;100.00;99847.56;4991477;28;20342;-84
2023/11/20 07:08:37;;;;;;;4.00;3.67;;;;;;;10.62;100.00;99844.78;4997159;28;20673;-83
2023/11/20 07:11:04;;;;;;;3.90;3.50;;;;;;;10.63;100.00;99848.28;4993533;28;20229;-82
2023/11/20 07:13:31;;;;;;;4.57;3.70;;;;;;;10.61;100.00;99855.53;4988202;28;20216;-82
2023/11/20 07:15:58;;;;;;;5.77;3.90;;;;;;;10.62;100.00;99844.78;4990945;28;20234;-82
2023/11/20 07:18:24;;;;;;;6.43;4.20;;;;;;;10.62;100.00;99851.91;4997212;28;20205;-82
2023/11/20 07:20:51;;;;;;;7.13;4.77;;;;;;;10.57;100.00;99857.59;4992884;28;20825;-83
2023/11/20 07:23:19;;;;;;;6.90;4.67;;;;;;;10.59;100.00;99855.66;4989478;28;20215;-83
2023/11/20 07:25:45;;;;;;;5.07;4.50;;;;;;;10.62;100.00;99859.91;4993582;28;20229;-83
2023/11/20 07:28:12;;;;;;;4.63;4.10;;;;;;;10.60;100.00;99864.50;4993957;28;20212;-82
2023/11/20 07:30:38;;;;;;;3.87;3.23;;;;;;;10.63;100.00;99865.13;5003047;28;20208;-83
2023/11/20 07:33:05;;;;;;;4.77;3.60;;;;;;;10.60;100.00;99860.03;4999773;28;20214;-83
2023/11/20 07:35:32;;;;;;;7.13;4.03;;;;;;;10.61;100.00;99860.88;4992262;28;20239;-83
2023/11/20 07:37:58;;;;;;;6.13;3.57;;;;;;;10.61;100.00;99875.03;4990906;28;20915;-83
2023/11/20 07:40:26;;;;;;;3.90;2.87;;;;;;;10.62;100.00;99867.91;4992580;28;20617;-83
2023/11/20 07:42:52;;;;;;;5.57;3.03;;;;;;;10.63;100.00;99872.25;4995284;28;20214;-84
2023/11/20 07:45:19;;;;;;;3.73;2.80;;;;;;;10.59;100.00;99871.63;4995499;28;20244;-84
2023/11/20 07:47:45;;;;;;;5.50;3.40;;;;;;;10.56;100.00;99879.88;4981321;28;20208;-82
2023/11/20 07:50:14;;;;;;;4.00;3.60;;;;;;;10.55;100.00;99880.84;4991402;28;20241;-84
2023/11/20 07:52:42;;;;;;;3.60;3.30;;;;;;;10.56;100.00;99871.03;4993017;28;20200;-83
2023/11/20 07:55:10;;;;;;;5.47;3.43;;;;;;;10.57;100.00;99870.09;4982216;28;20255;-82
2023/11/20 07:57:37;;;;;;;6.27;3.50;;;;;;;10.55;100.00;99880.00;4991480;28;20204;-83
2023/11/20 08:00:06;;;;;;;3.90;3.53;;;;;;;10.54;100.00;99876.47;4995108;28;20214;-83
2023/11/20 08:02:32;;;;;;;4.57;3.60;;;;;;;10.55;100.00;99877.34;4980711;28;20212;-83
2023/11/20 08:04:59;;;;;;;4.70;3.30;;;;;;;10.57;100.00;99888.72;4994783;28;20258;-83
2023/11/20 08:07:26;;;;;;;4.20;3.37;;;;;;;10.61;100.00;99887.50;4995599;28;20208;-82
2023/11/20 08:09:52;;;;;;;5.43;3.53;;;;;;;10.64;100.00;99887.28;4995033;28;20665;-82
2023/11/20 08:12:20;;;;;;;5.63;3.70;;;;;;;10.62;100.00;99895.38;4994693;28;20335;-83
2023/11/20 08:14:48;;;;;;;4.53;3.30;;;;;;;10.63;100.00;99896.22;4994955;28;20231;-83
2023/11/20 08:17:15;;;;;;;3.77;2.47;;;;;;;10.59;100.00;99900.94;4992449;28;20553;-83
2023/11/20 08:19:41;;;;;;;2.60;2.40;;;;;;;10.60;100.00;99907.94;4990242;28;20240;-83
2023/11/20 08:22:07;;;;;;;4.00;2.90;;;;;;;10.60;100.00;99910.63;4995015;28;20204;-83
2023/11/20 08:24:34;;;;;;;3.10;1.60;;;;;;;10.60;100.00;99897.31;4989290;28;20313;-82
2023/11/20 08:27:00;;;;;;;1.90;1.67;;;;;;;10.58;100.00;99904.53;4994576;28;20207;-83
2023/11/20 08:29:27;;;;;;;2.43;1.70;;;;;;;10.58;100.00;99906.38;4993928;28;20208;-84
2023/11/20 08:31:55;;;;;;;2.50;1.70;;;;;;;10.57;100.00;99908.16;4987376;28;20242;-83
2023/11/20 08:34:22;;;;;;;1.73;1.23;;;;;;;10.58;100.00;99915.19;4994190;28;20223;-83
2023/11/20 08:36:48;;;;;;;3.40;1.53;;;;;;;10.59;100.00;99910.72;5000763;28;20820;-83
2023/11/20 08:39:15;;;;;;;2.00;1.43;;;;;;;10.58;100.00;99903.69;4989457;28;20224;-82
2023/11/20 08:41:42;;;;;;;2.53;1.60;;;;;;;10.57;100.00;99913.50;4993934;28;20216;-83
2023/11/20 08:44:09;;;;;;;4.47;2.43;;;;;;;10.57;100.00;99902.84;4993879;28;20196;-82
2023/11/20 08:46:36;;;;;;;3.50;2.57;;;;;;;10.55;100.00;99906.63;4996504;28;20228;-82
2023/11/20 08:49:06;;;;;;;4.43;2.80;;;;;;;10.51;100.00;99907.81;4990280;28;20211;-83
2023/11/20 08:51:33;;;;;;;8.50;3.17;;;;;;;10.49;100.00;99915.91;4992813;28;20219;-82
2023/11/20 08:53:59;;;;;;;2.67;2.13;;;;;;;10.51;100.00;99919.31;4995880;28;20219;-83
2023/11/20 08:56:26;;;;;;;3.67;3.33;;;;;;;10.47;100.00;99911.66;4993412;28;20236;-82
2023/11/20 08:58:52;;;;;;;3.97;2.87;;;;;;;10.48;100.00;99914.19;4987733;28;20211;-84
2023/11/20 09:01:29;;;;;;;3.33;2.27;;;;;;;10.47;100.00;99922.31;4988853;28;20227;-82
2023/11/20 09:03:56;;;;;;;3.73;2.70;;;;;;;10.48;100.00;99926.66;4981165;28;20193;-84
2023/11/20 09:06:23;;;;;;;3.10;2.70;;;;;;;10.51;100.00;99924.63;4987312;28;20224;-82
2023/11/20 09:08:50;;;;;;;3.87;2.70;;;;;;;10.48;100.00;99922.19;4981299;28;20723;-83
2023/11/20 09:11:16;;;;;;;7.10;3.97;;;;;;;10.44;100.00;99924.22;4978272;28;20288;-82
2023/11/20 09:13:43;;;;;;;7.13;3.40;;;;;;;10.47;100.00;99928.47;4989004;28;20204;-82
2023/11/20 09:16:10;;;;;;;5.60;3.27;;;;;;;10.46;100.00;99929.44;4992819;28;20609;-83
2023/11/20 09:18:37;;;;;;;4.40;3.10;;;;;;;10.48;100.00;99937.31;4990504;28;20201;-83
2023/11/20 09:21:05;;;;;;;8.30;3.20;;;;;;;10.48;100.00;99939.97;4980856;28;20212;-83
2023/11/20 09:23:33;;;;;;;4.90;3.20;;;;;;;10.45;100.00;99935.72;4993342;28;20227;-83
2023/11/20 09:25:59;;;;;;;4.10;3.40;;;;;;;10.48;100.00;99939.97;4988354;28;20708;-82
2023/11/20 09:28:26;;;;;;;5.83;4.17;;;;;;;10.45;100.00;99946.38;4990489;28;20204;-82
2023/11/20 09:30:53;;;;;;;5.63;4.33;;;;;;;10.45;100.00;99946.38;4983028;28;20200;-83
2023/11/20 09:33:19;;;;;;;7.00;4.70;;;;;;;10.47;100.00;99946.25;4992491;28;20208;-83
2023/11/20 09:35:46;;;;;;;6.47;5.33;;;;;;;10.48;100.00;99937.31;4986970;28;20228;-83
2023/11/20 09:38:13;;;;;;;8.03;6.13;;;;;;;10.47;100.00;99941.78;4998378;28;20216;-83
2023/11/20 09:40:42;;;;;;;10.80;5.63;;;;;;;10.47;100.00;99943.59;4996031;28;20213;-82
2023/11/20 09:43:10;;;;;;;9.47;5.80;;;;;;;10.48;100.00;99945.31;4988114;28;20213;-84
2023/11/20 09:45:40;;;;;;;7.97;5.90;;;;;;;10.51;100.00;99937.94;4994816;28;20227;-84
2023/11/20 09:48:08;;;;;;;9.87;5.97;;;;;;;10.51;100.00;99940.59;5003709;28;20206;-84
2023/11/20 09:50:39;;;;;;;8.10;5.27;;;;;;;10.53;100.00;99937.81;5006840;28;20207;-83
2023/11/20 09:53:08;;;;;;;7.10;4.60;;;;;;;10.53;100.00;99944.00;4984933;28;20201;-84
2023/11/20 09:55:34;;;;;;;6.60;3.80;;;;;;;10.50;100.00;99943.38;4992393;28;20575;-84
2023/11/20 09:58:02;;;;;;;6.10;4.77;;;;;;;10.51;100.00;99937.09;4999687;28;20204;-83
2023/11/20 10:00:28;;;;;;;8.53;4.67;;;;;;;10.51;100.00;99939.75;4985023;28;20677;-83
2023/11/20 10:02:55;;;;;;;4.67;4.20;;;;;;;10.49;100.00;99939.00;4987378;28;20219;-83
2023/11/20 10:05:27;;;;;;;6.90;3.83;;;;;;;10.49;100.00;99931.03;4988465;28;20605;-84
2023/11/20 10:07:57;;;;;;;6.73;3.30;;;;;;;10.43;100.00;99941.16;4981997;28;20200;-84
2023/11/20 10:10:24;;;;;;;5.63;3.57;;;;;;;10.41;100.00;99937.75;4994087;28;20211;-83
2023/11/20 10:12:54;;;;;;;7.57;4.10;;;;;;;10.41;100.00;99940.41;4991737;28;20204;-83
2023/11/20 10:15:22;;;;;;;10.17;4.57;;;;;;;10.39;100.00;99938.84;4989857;28;20231;-84
2023/11/20 10:17:48;;;;;;;7.97;4.30;;;;;;;10.39;100.00;99931.69;4987008;28;20590;-83
2023/11/20 10:20:16;;;;;;;8.03;4.93;;;;;;;10.42;100.00;99942.13;4981163;28;20211;-82
2023/11/20 10:22:44;;;;;;;11.00;4.60;;;;;;;10.43;100.00;99938.50;4988016;28;20584;-82
2023/11/20 10:25:11;;;;;;;7.63;5.03;;;;;;;10.46;100.00;99953.41;4986239;28;20229;-83
2023/11/20 10:27:38;;;;;;;7.27;4.20;;;;;;;10.48;100.00;99945.31;4978988;28;20213;-83
2023/11/20 10:30:09;;;;;;;10.37;4.13;;;;;;;10.49;100.00;99947.00;4989575;28;20256;-83
2023/11/20 10:32:41;;;;;;;6.83;3.40;;;;;;;10.49;100.00;99952.31;4990235;28;20196;-83
2023/11/20 10:35:17;;;;;;;9.33;3.50;;;;;;;10.52;100.00;99946.78;4985332;28;20224;-83
2023/11/20 10:37:53;;;;;;;7.63;3.17;;;;;;;10.51;100.00;99951.25;4990010;28;20290;-82
2023/11/20 10:40:20;;;;;;;8.43;3.37;;;;;;;10.52;100.00;99952.09;4981257;28;20568;-83
2023/11/20 10:42:46;;;;;;;10.07;3.97;;;;;;;10.55;100.00;99947.41;4991246;28;20216;-83
2023/11/20 10:45:13;;;;;;;9.17;4.03;;;;;;;10.55;100.00;99954.53;4986861;28;20220;-82
2023/11/20 10:47:41;;;;;;;9.13;3.33;;;;;;;10.56;100.00;99945.59;4988716;28;20652;-84
2023/11/20 10:50:11;;;;;;;11.30;4.87;;;;;;;10.55;100.00;99946.56;4990522;28;20205;-82
2023/11/20 10:52:41;;;;;;;8.30;4.33;;;;;;;10.52;100.00;99946.78;4985151;28;20204;-83
2023/11/20 10:55:11;;;;;;;8.47;4.43;;;;;;;10.53;100.00;99941.34;4983977;28;20246;-83
2023/11/20 10:57:39;;;;;;;8.03;4.47;;;;;;;10.51;100.00;99947.75;4983439;28;20653;-82
2023/11/20 11:00:10;;;;;;;11.23;4.77;;;;;;;10.54;100.00;99945.72;4982992;28;20267;-83
2023/11/20 11:02:39;;;;;;;9.03;5.07;;;;;;;10.53;100.00;99937.81;4987265;28;20300;-82
2023/11/20 11:05:09;;;;;;;8.10;5.27;;;;;;;10.51;100.00;99945.94;4990278;28;20231;-83
2023/11/20 11:07:39;;;;;;;13.57;6.20;;;;;;;10.49;100.00;99941.69;4990043;28;20379;-83
2023/11/20 11:10:10;;;;;;;8.87;6.07;;;;;;;10.50;100.00;99938.06;4990786;28;20209;-82
2023/11/20 11:12:40;;;;;;;10.33;6.10;;;;;;;10.46;100.00;99940.09;4990099;28;20228;-83
2023/11/20 11:15:08;;;;;;;8.37;6.27;;;;;;;10.44;100.00;99932.22;4990806;28;20255;-83
2023/11/20 11:17:42;;;;;;;9.40;5.90;;;;;;;10.44;100.00;99936.69;4986941;28;20211;-83
2023/11/20 11:20:13;;;;;;;9.00;6.13;;;;;;;10.46;100.00;99941.91;4973119;28;20219;-83
2023/11/20 11:22:43;;;;;;;10.07;6.30;;;;;;;10.44;100.00;99926.03;4987385;28;20617;-84
2023/11/20 11:25:12;;;;;;;9.17;5.63;;;;;;;10.43;100.00;99933.16;4978925;28;20723;-83